Time;durP1;ratioP1;P1;durP2;ratioP2;P2;SDS_P1;SDS_P2;PMS_P1;PMS_P2;Temp;Humidity;BMP_temperature;BMP_pressure;BME280_temperature;BME280_humidity;BME280_pressure;Samples;Min_cycle;Max_cycle;Signal;HPM_P1;HPM_P2
2021/01/09 00:01:56;;;;;;;13.38;4.95;;;2.70;99.90;;;3.26;86.49;101186.03;5076185;28;20213;-76
2021/01/09 00:04:22;;;;;;;13.83;5.00;;;2.70;99.90;;;3.21;86.27;101185.16;5076740;28;20215;-76
2021/01/09 00:06:50;;;;;;;14.77;5.80;;;2.70;99.90;;;3.16;86.17;101179.16;5072148;28;20245;-76
2021/01/09 00:09:16;;;;;;;13.97;5.50;;;2.60;99.90;;;3.15;86.39;101182.59;5072008;28;20181;-76
2021/01/09 00:11:43;;;;;;;14.20;4.97;;;2.60;99.90;;;3.11;86.25;101184.31;5075985;28;20195;-77
2021/01/09 00:14:11;;;;;;;14.67;4.97;;;2.60;99.90;;;3.03;86.45;101185.19;5058533;28;20694;-76
2021/01/09 00:16:37;;;;;;;14.70;5.47;;;2.60;99.90;;;3.03;86.26;101183.44;5077268;28;20192;-76
2021/01/09 00:19:04;;;;;;;14.27;5.53;;;2.60;99.90;;;3.04;86.38;101184.31;5073715;28;20210;-75
2021/01/09 00:21:35;;;;;;;15.83;5.67;;;2.50;99.90;;;3.04;86.53;101180.00;5070277;28;20191;-76
2021/01/09 00:24:04;;;;;;;17.07;6.47;;;2.50;99.90;;;3.11;86.69;101183.44;5075463;28;20268;-73
2021/01/09 00:26:31;;;;;;;14.37;5.40;;;2.60;99.90;;;3.15;86.34;101178.28;5062294;28;20201;-75
2021/01/09 00:28:58;;;;;;;14.07;5.50;;;2.60;99.90;;;3.14;86.24;101181.72;5073571;28;20191;-75
2021/01/09 00:31:24;;;;;;;13.37;5.17;;;2.60;99.90;;;3.16;86.44;101189.47;5077053;28;20188;-75
2021/01/09 00:33:50;;;;;;;15.03;5.67;;;2.60;99.90;;;3.19;86.41;101189.47;5059776;28;20322;-75
2021/01/09 00:36:17;;;;;;;15.97;5.70;;;2.60;99.90;;;3.22;86.35;101180.00;5071080;28;20207;-76
2021/01/09 00:38:43;;;;;;;17.27;5.33;;;2.70;99.90;;;3.22;86.19;101173.97;5057829;28;20242;-74
2021/01/09 00:41:09;;;;;;;13.80;5.30;;;2.70;99.90;;;3.21;86.20;101185.16;5076364;28;20652;-76
2021/01/09 00:43:36;;;;;;;15.13;5.40;;;2.70;99.90;;;3.20;86.21;101188.63;5075869;28;20204;-75
2021/01/09 00:46:03;;;;;;;15.13;5.30;;;2.70;99.90;;;3.22;86.34;101187.75;5075616;28;20192;-73
2021/01/09 00:48:29;;;;;;;14.37;5.93;;;2.70;99.90;;;3.19;86.00;101197.22;5073146;28;20218;-76
2021/01/09 00:50:55;;;;;;;15.53;5.67;;;2.70;99.90;;;3.16;86.28;101190.34;5074039;28;20192;-76
2021/01/09 00:53:22;;;;;;;14.50;5.63;;;2.60;99.90;;;3.15;86.16;101193.78;5073454;28;20227;-76
2021/01/09 00:55:48;;;;;;;15.77;5.43;;;2.70;99.90;;;3.17;86.53;101201.53;5074911;28;20199;-76
2021/01/09 00:58:14;;;;;;;17.63;5.87;;;2.70;99.90;;;3.20;86.18;101196.38;5074527;28;20212;-75
2021/01/09 01:00:41;;;;;;;14.77;5.53;;;2.70;99.90;;;3.22;86.23;101199.81;5074926;28;20188;-76
2021/01/09 01:03:08;;;;;;;15.07;5.63;;;2.70;99.90;;;3.26;86.28;101202.41;5073625;28;20211;-76
2021/01/09 01:05:34;;;;;;;15.07;5.63;;;2.70;99.90;;;3.21;85.99;101206.72;5072115;28;20184;-76
2021/01/09 01:08:00;;;;;;;15.00;5.43;;;2.70;99.90;;;3.19;86.06;101205.84;5071999;28;20188;-76
2021/01/09 01:10:27;;;;;;;16.13;5.93;;;2.70;99.90;;;3.09;86.21;101213.59;5071948;28;20271;-76
2021/01/09 01:12:55;;;;;;;13.90;5.10;;;2.60;99.90;;;3.05;86.29;101212.72;5064198;28;20224;-76
2021/01/09 01:15:21;;;;;;;15.87;5.63;;;2.60;99.90;;;3.03;86.48;101213.59;5072956;28;20196;-75
2021/01/09 01:17:48;;;;;;;16.50;5.93;;;2.50;99.90;;;3.00;86.43;101214.44;5073637;28;20234;-75
2021/01/09 01:20:15;;;;;;;14.73;5.20;;;2.50;99.90;;;3.02;86.73;101220.47;5072733;28;20208;-75
2021/01/09 01:22:45;;;;;;;15.77;5.13;;;2.50;99.90;;;3.05;86.62;101217.06;5073820;28;20212;-76
2021/01/09 01:25:13;;;;;;;13.07;4.87;;;2.50;99.90;;;3.07;86.59;101223.94;5071680;28;20249;-75
2021/01/09 01:27:40;;;;;;;13.03;5.17;;;2.50;99.90;;;3.05;86.54;101224.81;5074243;28;20200;-76
2021/01/09 01:30:08;;;;;;;16.97;6.00;;;2.50;99.90;;;2.98;86.59;101220.50;5072432;28;20210;-76
2021/01/09 01:32:34;;;;;;;15.40;5.43;;;2.40;99.90;;;2.99;87.16;101225.66;5074729;28;20212;-76
2021/01/09 01:35:01;;;;;;;15.20;5.00;;;2.40;99.90;;;3.01;87.02;101229.13;5071090;28;20185;-75
2021/01/09 01:37:28;;;;;;;14.87;5.53;;;2.40;99.90;;;2.98;87.09;101226.50;5070175;28;20207;-76
2021/01/09 01:39:55;;;;;;;13.87;4.60;;;2.40;99.90;;;2.95;86.96;101230.84;5059376;28;20248;-76
2021/01/09 01:42:21;;;;;;;15.27;4.80;;;2.40;99.90;;;2.95;87.30;101236.84;5061757;28;22348;-76
2021/01/09 01:44:47;;;;;;;13.50;5.47;;;2.40;99.90;;;2.95;87.07;101230.84;5075507;28;20192;-76
2021/01/09 01:47:18;;;;;;;16.63;5.00;;;2.40;99.90;;;2.96;87.06;101225.66;5074415;28;20196;-76
2021/01/09 01:49:45;;;;;;;14.73;5.07;;;2.40;99.90;;;2.95;87.26;101238.59;5052270;28;20192;-76
2021/01/09 01:52:13;;;;;;;14.32;4.78;;;2.40;99.90;;;2.97;87.45;101223.91;5066090;28;20219;-76
2021/01/09 01:54:40;;;;;;;16.70;5.60;;;2.40;99.90;;;2.95;87.34;101234.25;5074140;28;20279;-76
2021/01/09 01:57:09;;;;;;;15.40;5.17;;;2.40;99.90;;;2.97;87.33;101227.38;5068810;28;20196;-76
2021/01/09 01:59:36;;;;;;;14.43;5.05;;;2.40;99.90;;;3.03;87.39;101219.63;5074981;28;20204;-75
2021/01/09 02:02:05;;;;;;;13.27;4.70;;;2.40;99.90;;;3.10;87.69;101226.50;5070413;28;20227;-73
2021/01/09 02:04:32;;;;;;;15.17;5.70;;;2.50;99.90;;;3.20;87.38;101225.66;5068469;28;20192;-76
2021/01/09 02:07:04;;;;;;;14.50;5.30;;;2.50;99.90;;;3.22;87.42;101225.66;5075880;28;20203;-78
2021/01/09 02:09:38;;;;;;;13.30;5.17;;;2.60;99.90;;;3.22;87.30;101236.00;5070447;28;20195;-76
2021/01/09 02:12:13;;;;;;;13.60;5.00;;;2.60;99.90;;;3.22;87.33;101231.69;5077033;28;20238;-76
2021/01/09 02:14:43;;;;;;;13.77;4.97;;;2.60;99.90;;;3.20;87.02;101232.59;5074235;28;20198;-75
2021/01/09 02:17:11;;;;;;;12.48;4.70;;;2.60;99.90;;;3.12;86.92;101229.09;5074072;28;20210;-76
2021/01/09 02:19:40;;;;;;;13.50;5.23;;;2.50;99.90;;;3.10;87.30;101233.44;5077658;28;20192;-75
2021/01/09 02:22:10;;;;;;;13.60;5.50;;;2.50;99.90;;;3.07;87.46;101230.81;5077549;28;20216;-76
2021/01/09 02:24:37;;;;;;;16.90;5.70;;;2.50;99.90;;;3.07;87.53;101231.69;5060962;28;20203;-76
2021/01/09 02:27:06;;;;;;;13.63;5.13;;;2.40;99.90;;;3.07;87.86;101230.81;5076457;28;20192;-75
2021/01/09 02:29:37;;;;;;;12.83;4.70;;;2.40;99.90;;;3.06;87.71;101229.97;5072876;28;20187;-76
2021/01/09 02:32:08;;;;;;;13.07;5.40;;;2.40;99.90;;;3.06;87.74;101237.72;5076931;28;20207;-75
2021/01/09 02:34:41;;;;;;;13.33;5.03;;;2.40;99.90;;;3.01;87.89;101238.56;5074624;28;20276;-75
2021/01/09 02:37:09;;;;;;;11.97;4.33;;;2.40;99.90;;;2.97;87.85;101250.63;5064932;28;20193;-75
2021/01/09 02:39:37;;;;;;;13.23;4.50;;;2.40;99.90;;;2.94;88.13;101248.03;5075983;28;20200;-76
2021/01/09 02:42:04;;;;;;;11.07;4.33;;;2.30;99.90;;;2.94;88.19;101234.25;5074153;28;20216;-75
2021/01/09 02:44:31;;;;;;;14.07;4.87;;;2.30;99.90;;;3.00;88.21;101244.63;5070288;28;20203;-76
2021/01/09 02:46:57;;;;;;;12.37;4.07;;;2.30;99.90;;;3.03;88.13;101250.63;5060940;28;20195;-76
2021/01/09 02:49:23;;;;;;;14.33;5.17;;;2.40;99.90;;;3.05;88.28;101256.66;5059301;28;20318;-77
2021/01/09 02:51:50;;;;;;;14.70;5.03;;;2.40;99.90;;;3.01;88.34;101252.38;5073481;28;20196;-75
2021/01/09 02:54:16;;;;;;;15.03;5.13;;;2.30;99.90;;;2.99;88.01;101248.91;5074223;28;20219;-76
2021/01/09 02:56:43;;;;;;;12.07;4.43;;;2.30;99.90;;;2.99;88.32;101259.25;5069535;28;20837;-76
2021/01/09 02:59:10;;;;;;;12.37;4.47;;;2.30;99.90;;;2.98;88.32;101257.50;5056876;28;20192;-75
2021/01/09 03:01:36;;;;;;;14.07;4.90;;;2.30;99.90;;;2.98;88.34;101261.84;5079141;28;20192;-76
2021/01/09 03:04:02;;;;;;;14.00;5.07;;;2.30;99.90;;;2.97;88.43;101255.78;5078208;28;20269;-73
2021/01/09 03:06:29;;;;;;;14.80;5.07;;;2.30;99.90;;;2.96;88.26;101266.13;5072625;28;21296;-76
2021/01/09 03:08:55;;;;;;;13.37;5.03;;;2.30;99.90;;;2.93;88.26;101259.22;5057077;28;20287;-76
2021/01/09 03:11:22;;;;;;;13.83;4.47;;;2.30;99.90;;;2.90;88.29;101258.38;5075023;28;20210;-76
2021/01/09 03:13:49;;;;;;;13.90;5.17;;;2.20;99.90;;;2.91;88.34;101265.25;5060695;28;20224;-76
2021/01/09 03:16:15;;;;;;;15.10;5.13;;;2.20;99.90;;;2.94;88.06;101267.84;5058127;28;20211;-76
2021/01/09 03:18:42;;;;;;;16.53;5.53;;;2.30;99.90;;;2.98;88.42;101272.19;5078157;28;20271;-76
2021/01/09 03:21:08;;;;;;;14.77;5.53;;;2.30;99.90;;;2.97;88.10;101270.44;5073617;28;20206;-76
2021/01/09 03:23:35;;;;;;;12.93;4.67;;;2.30;99.90;;;2.94;88.40;101275.59;5078860;28;20208;-75
2021/01/09 03:26:01;;;;;;;13.37;5.00;;;2.30;99.90;;;2.97;88.34;101271.31;5078834;28;20192;-75
2021/01/09 03:28:28;;;;;;;12.23;4.77;;;2.30;99.90;;;2.97;88.04;101281.63;5077472;28;20188;-75
2021/01/09 03:30:55;;;;;;;14.97;5.23;;;2.30;99.90;;;2.96;88.11;101276.47;5078228;28;20196;-76
2021/01/09 03:33:21;;;;;;;14.27;5.37;;;2.30;99.90;;;2.92;88.43;101269.56;5076573;28;20216;-76
2021/01/09 03:35:47;;;;;;;13.33;5.03;;;2.30;99.90;;;2.89;87.95;101283.34;5075388;28;20184;-76
2021/01/09 03:38:14;;;;;;;13.70;5.00;;;2.30;99.90;;;2.89;88.22;101288.50;5077222;28;20196;-76
2021/01/09 03:40:40;;;;;;;12.13;4.47;;;2.30;99.90;;;2.93;88.81;101289.38;5076062;28;20203;-76
2021/01/09 03:43:06;;;;;;;13.40;4.83;;;2.30;99.90;;;2.91;88.51;101288.50;5076949;28;20216;-76
2021/01/09 03:45:32;;;;;;;13.73;5.50;;;2.30;99.90;;;2.91;88.49;101291.97;5078828;28;20194;-76
2021/01/09 03:48:00;;;;;;;12.40;4.97;;;2.30;99.90;;;2.96;88.27;101284.22;5071629;28;20203;-76
2021/01/09 03:50:26;;;;;;;13.50;5.00;;;2.30;99.90;;;2.97;88.31;101289.38;5075143;28;20180;-76
2021/01/09 03:52:52;;;;;;;14.87;4.73;;;2.40;99.90;;;2.99;87.93;101289.38;5078933;28;20216;-76
2021/01/09 03:55:19;;;;;;;15.13;5.13;;;2.30;99.90;;;2.97;88.01;101280.75;5075369;28;20613;-76
2021/01/09 03:57:45;;;;;;;14.33;4.67;;;2.40;99.90;;;3.00;88.09;101291.13;5073773;28;20196;-75
2021/01/09 04:00:13;;;;;;;14.50;4.97;;;2.40;99.90;;;3.02;87.82;101289.38;5072994;28;20197;-76
2021/01/09 04:02:39;;;;;;;12.67;4.83;;;2.40;99.90;;;3.00;87.96;101296.31;5057497;28;20576;-76
2021/01/09 04:05:09;;;;;;;11.07;4.17;;;2.40;99.90;;;2.97;87.84;101296.28;5075782;28;20305;-76
2021/01/09 04:07:35;;;;;;;13.47;4.70;;;2.40;99.90;;;2.98;87.90;101287.69;5070096;28;20188;-76
2021/01/09 04:10:03;;;;;;;13.73;4.77;;;2.40;99.90;;;2.94;87.69;101293.69;5077850;28;20245;-76
2021/01/09 04:12:30;;;;;;;14.47;4.50;;;2.30;99.90;;;2.89;87.96;101304.03;5058895;28;20273;-76
2021/01/09 04:14:56;;;;;;;13.60;4.60;;;2.30;99.90;;;2.88;88.10;101306.59;5061859;28;20196;-76
2021/01/09 04:17:23;;;;;;;13.43;4.83;;;2.30;99.90;;;2.91;88.31;101306.59;5062281;28;20195;-76
2021/01/09 04:19:49;;;;;;;14.37;5.03;;;2.30;99.90;;;2.97;88.04;101306.59;5068979;28;20196;-75
2021/01/09 04:22:16;;;;;;;14.77;5.13;;;2.40;99.90;;;2.99;87.82;101304.91;5077452;28;20220;-76
2021/01/09 04:24:42;;;;;;;11.90;4.80;;;2.40;99.90;;;2.95;87.81;101314.34;5068818;28;20207;-76
2021/01/09 04:27:09;;;;;;;13.93;5.43;;;2.40;99.90;;;2.93;87.54;101307.47;5065029;28;20738;-76
2021/01/09 04:29:35;;;;;;;13.97;4.83;;;2.40;99.90;;;2.91;87.90;101319.53;5078300;28;20192;-76
2021/01/09 04:32:01;;;;;;;15.50;5.63;;;2.40;99.90;;;2.96;88.11;101315.22;5070591;28;20204;-76
2021/01/09 04:34:28;;;;;;;13.33;5.13;;;2.40;99.90;;;2.98;87.81;101311.78;5076159;28;20208;-76
2021/01/09 04:36:54;;;;;;;15.07;5.67;;;2.40;99.90;;;2.93;87.88;101315.22;5072245;28;20199;-75
2021/01/09 04:39:22;;;;;;;16.83;5.00;;;2.30;99.90;;;2.90;88.10;101315.22;5073483;28;20188;-76
2021/01/09 04:41:48;;;;;;;16.47;5.27;;;2.30;99.90;;;2.92;88.02;101318.66;5074045;28;20611;-76
2021/01/09 04:44:15;;;;;;;13.97;4.87;;;2.30;99.90;;;2.89;88.09;101314.34;5054057;28;20212;-76
2021/01/09 04:46:50;;;;;;;14.53;4.77;;;2.30;99.90;;;2.90;88.09;101325.56;5073664;28;20211;-76
2021/01/09 04:49:17;;;;;;;16.63;4.90;;;2.30;99.90;;;2.88;88.43;101327.28;5051988;28;20200;-77
2021/01/09 04:51:45;;;;;;;14.97;5.33;;;2.30;99.90;;;2.90;88.26;101328.16;5075213;28;20197;-76
2021/01/09 04:54:15;;;;;;;15.77;4.97;;;2.30;99.90;;;2.91;88.53;101337.59;5071012;28;20687;-76
2021/01/09 04:56:45;;;;;;;13.73;4.97;;;2.30;99.90;;;2.93;88.48;101334.16;5056512;28;20192;-76
2021/01/09 04:59:12;;;;;;;14.17;4.87;;;2.30;99.90;;;2.92;88.48;101329.84;5071553;28;20193;-76
2021/01/09 05:01:40;;;;;;;13.60;4.90;;;2.30;99.90;;;2.91;88.69;101327.28;5056437;28;20192;-76
2021/01/09 05:04:07;;;;;;;13.53;5.07;;;2.30;99.90;;;2.92;88.58;101335.03;5072878;28;20196;-76
2021/01/09 05:06:33;;;;;;;17.07;5.87;;;2.30;99.90;;;2.91;88.65;101332.44;5073335;28;20252;-76
2021/01/09 05:09:00;;;;;;;13.73;4.63;;;2.30;99.90;;;2.94;88.63;101332.44;5076514;28;20188;-76
2021/01/09 05:11:26;;;;;;;14.93;5.37;;;2.30;99.90;;;2.92;88.70;101344.50;5071278;28;20664;-77
2021/01/09 05:13:54;;;;;;;17.47;5.10;;;2.30;99.90;;;2.91;88.92;101350.53;5074598;28;20213;-75
2021/01/09 05:16:20;;;;;;;18.80;5.10;;;2.30;99.90;;;2.91;89.04;101342.78;5076059;28;20195;-76
2021/01/09 05:18:46;;;;;;;16.03;5.50;;;2.30;99.90;;;2.96;89.18;101347.13;5076929;28;20196;-75
2021/01/09 05:21:14;;;;;;;15.53;5.47;;;2.30;99.90;;;2.97;89.17;101346.25;5077247;28;20195;-76
2021/01/09 05:23:52;;;;;;;16.63;5.33;;;2.30;99.90;;;2.94;89.02;101348.81;5077322;28;20716;-76
2021/01/09 05:26:20;;;;;;;12.80;4.27;;;2.30;99.90;;;2.92;89.00;101362.59;5076362;28;20196;-75
2021/01/09 05:28:50;;;;;;;14.53;4.80;;;2.30;99.90;;;2.92;89.26;101360.00;5077830;28;20192;-76
2021/01/09 05:31:20;;;;;;;12.03;4.43;;;2.30;99.90;;;2.94;89.46;101364.31;5076268;28;20196;-74
2021/01/09 05:33:49;;;;;;;13.83;4.30;;;2.40;99.90;;;2.98;89.13;101367.78;5074157;28;20212;-76
2021/01/09 05:36:16;;;;;;;12.33;4.53;;;2.40;99.90;;;2.96;88.90;101372.97;5071185;28;20200;-76
2021/01/09 05:38:45;;;;;;;12.17;4.30;;;2.40;99.90;;;2.93;88.82;101366.91;5078256;28;20192;-77
2021/01/09 05:41:14;;;;;;;12.07;4.17;;;2.30;99.90;;;2.88;89.01;101368.63;5076364;28;20196;-76
2021/01/09 05:43:40;;;;;;;11.20;3.67;;;2.30;99.90;;;2.86;89.05;101366.03;5073844;28;20652;-76
2021/01/09 05:46:08;;;;;;;11.40;3.90;;;2.30;99.90;;;2.90;89.13;101372.06;5075718;28;20192;-76
2021/01/09 05:48:36;;;;;;;13.33;4.43;;;2.30;99.90;;;2.90;89.04;101369.50;5076170;28;20184;-75
2021/01/09 05:51:06;;;;;;;13.10;4.10;;;2.30;99.90;;;2.93;88.99;101377.25;5069228;28;20270;-74
2021/01/09 05:53:37;;;;;;;10.53;4.07;;;2.30;99.90;;;2.93;88.86;101383.25;5072078;28;20212;-76
2021/01/09 05:56:04;;;;;;;13.90;4.53;;;2.40;99.90;;;2.89;88.82;101378.94;5076128;28;20196;-76
2021/01/09 05:58:32;;;;;;;12.30;4.43;;;2.40;99.90;;;2.92;89.03;101383.25;5070221;28;20297;-76
2021/01/09 06:00:59;;;;;;;13.50;4.37;;;2.40;99.90;;;2.94;89.18;101385.00;5073090;28;20196;-76
2021/01/09 06:03:42;;;;;;;13.10;4.57;;;2.40;99.90;;;2.92;88.88;101381.53;5055963;28;20301;-75
2021/01/09 06:06:24;;;;;;;12.87;4.77;;;2.40;99.90;;;2.90;89.09;101382.41;5052278;28;20200;-76
2021/01/09 06:08:59;;;;;;;12.60;4.23;;;2.40;99.90;;;2.87;88.94;101392.69;5074638;28;20207;-76
2021/01/09 06:11:34;;;;;;;12.27;4.20;;;2.40;99.90;;;2.85;89.22;101387.53;5067266;28;20254;-76
2021/01/09 06:14:02;;;;;;;13.03;4.50;;;2.30;99.90;;;2.81;89.13;101392.69;5069970;28;20208;-75
2021/01/09 06:16:31;;;;;;;12.77;4.77;;;2.30;99.90;;;2.84;89.03;101403.03;5075060;28;20270;-76
2021/01/09 06:18:59;;;;;;;12.07;4.13;;;2.30;99.90;;;2.86;89.16;101406.50;5051588;28;20200;-76
2021/01/09 06:21:30;;;;;;;14.10;4.97;;;2.40;99.90;;;2.89;89.24;101403.91;5065872;28;20206;-76
2021/01/09 06:23:58;;;;;;;14.03;5.00;;;2.40;99.90;;;2.90;88.98;101403.06;5072573;28;20219;-76
2021/01/09 06:26:28;;;;;;;14.27;5.00;;;2.40;99.90;;;2.87;88.98;101405.63;5071513;28;20196;-76
2021/01/09 06:28:57;;;;;;;15.03;4.97;;;2.40;99.90;;;2.84;89.06;101396.16;5072907;28;20187;-76
2021/01/09 06:31:27;;;;;;;14.27;4.83;;;2.40;99.90;;;2.88;88.92;101408.22;5072039;28;20215;-76
2021/01/09 06:33:58;;;;;;;13.37;4.43;;;2.40;99.90;;;2.88;88.86;101415.13;5073506;28;20226;-76
2021/01/09 06:36:26;;;;;;;10.87;4.03;;;2.40;99.90;;;2.89;88.90;101414.25;5073571;28;20202;-75
2021/01/09 06:38:56;;;;;;;11.53;4.13;;;2.40;99.90;;;2.89;88.65;101420.28;5062052;28;20197;-75
2021/01/09 06:41:25;;;;;;;14.53;4.90;;;2.40;99.90;;;2.91;88.87;101421.16;5072128;28;20209;-74
2021/01/09 06:43:54;;;;;;;12.27;4.53;;;2.40;99.90;;;2.93;88.74;101418.59;5062849;28;20640;-75
2021/01/09 06:46:28;;;;;;;12.97;4.90;;;2.40;99.90;;;2.97;88.50;101426.34;5074542;28;20196;-75
2021/01/09 06:48:55;;;;;;;12.23;4.13;;;2.40;99.90;;;2.99;88.38;101429.81;5072452;28;20194;-76
2021/01/09 06:51:43;;;;;;;13.77;4.57;;;2.40;99.90;;;2.99;88.28;101421.19;5061087;28;20219;-76
2021/01/09 06:54:27;;;;;;;13.45;4.20;;;2.40;99.90;;;2.99;88.07;101432.41;5063240;28;20216;-76
2021/01/09 06:57:19;;;;;;;15.20;5.33;;;2.50;99.90;;;2.96;87.87;101427.22;5055126;28;20210;-76
2021/01/09 06:59:48;;;;;;;11.70;3.67;;;2.50;99.90;;;2.97;87.49;101430.66;5058327;28;20230;-76
2021/01/09 07:02:23;;;;;;;14.57;4.37;;;2.40;99.90;;;2.96;87.14;101440.16;5071667;28;20706;-76
2021/01/09 07:05:05;;;;;;;11.47;3.63;;;2.50;99.90;;;2.91;87.07;101449.59;5053001;28;20615;-75
2021/01/09 07:07:39;;;;;;;10.40;3.40;;;2.40;99.90;;;2.91;87.56;101448.72;5065690;28;20651;-76
2021/01/09 07:10:15;;;;;;;12.60;4.43;;;2.40;99.90;;;2.92;87.27;101451.31;5053657;28;20200;-77
2021/01/09 07:12:48;;;;;;;12.60;4.70;;;2.40;99.90;;;2.92;87.23;101450.44;5061039;28;20231;-75
2021/01/09 07:15:17;;;;;;;14.47;5.10;;;2.40;99.90;;;2.88;87.07;101449.56;5052112;28;20572;-79
2021/01/09 07:17:52;;;;;;;14.83;4.80;;;2.40;99.90;;;2.84;87.26;101452.13;5058287;28;20199;-75
2021/01/09 07:20:23;;;;;;;14.37;4.97;;;2.40;99.90;;;2.79;87.10;101459.84;5067073;28;20188;-72
2021/01/09 07:22:52;;;;;;;14.50;4.57;;;2.30;99.90;;;2.78;87.23;101458.09;5066878;28;20244;-76
2021/01/09 07:25:32;;;;;;;12.13;4.33;;;2.30;99.90;;;2.80;87.64;101468.47;5073942;28;20203;-76
2021/01/09 07:28:02;;;;;;;13.80;4.87;;;2.30;99.90;;;2.82;87.40;101471.91;5062207;28;20635;-78
2021/01/09 07:30:30;;;;;;;16.47;5.23;;;2.40;99.90;;;2.88;87.59;101467.63;5049459;28;20192;-76
2021/01/09 07:32:59;;;;;;;14.80;4.90;;;2.40;99.90;;;2.95;87.57;101463.41;5060571;28;20216;-78
2021/01/09 07:35:28;;;;;;;13.40;4.60;;;2.50;99.90;;;2.99;87.14;101466.00;5071706;28;20670;-79
2021/01/09 07:38:00;;;;;;;14.20;5.27;;;2.50;99.90;;;2.99;87.37;101476.34;5053275;28;20192;-76
2021/01/09 07:40:33;;;;;;;15.33;4.90;;;2.50;99.90;;;3.00;87.32;101470.28;5070733;28;20225;-77
2021/01/09 07:43:00;;;;;;;14.87;3.90;;;2.50;99.90;;;3.03;87.33;101474.63;5061139;28;20212;-76
2021/01/09 07:45:32;;;;;;;13.03;4.10;;;2.60;99.90;;;3.07;87.21;101482.41;5061438;28;20200;-77
2021/01/09 07:47:59;;;;;;;12.33;4.33;;;2.60;99.90;;;3.09;86.72;101485.00;5055256;28;20197;-76
2021/01/09 07:50:41;;;;;;;12.73;4.33;;;2.60;99.90;;;3.05;86.81;101480.69;5050952;28;20192;-75
2021/01/09 07:53:08;;;;;;;12.20;4.03;;;2.60;99.90;;;3.02;86.47;101486.69;5056184;28;20250;-76
2021/01/09 07:55:45;;;;;;;12.63;4.40;;;2.60;99.90;;;3.05;86.79;101483.25;5062564;28;20200;-76
2021/01/09 07:58:12;;;;;;;13.50;5.10;;;2.60;99.90;;;3.08;86.77;101491.88;5044370;28;20197;-76
2021/01/09 08:00:41;;;;;;;13.43;4.50;;;2.60;99.90;;;3.08;86.51;101491.88;5051983;28;20196;-77
2021/01/09 08:03:09;;;;;;;13.33;4.47;;;2.60;99.90;;;3.08;86.67;101488.44;5064190;28;20239;-77
2021/01/09 08:05:37;;;;;;;13.70;4.43;;;2.60;99.90;;;3.09;86.59;101503.09;5050459;28;20239;-76
2021/01/09 08:08:05;;;;;;;10.93;3.93;;;2.60;99.90;;;3.12;86.66;101501.38;5048803;28;20246;-77
2021/01/09 08:10:33;;;;;;;12.93;4.50;;;2.70;99.90;;;3.16;86.32;101499.69;5058106;28;20217;-75
2021/01/09 08:13:03;;;;;;;12.20;4.47;;;2.70;99.90;;;3.16;86.25;101508.31;5060952;28;20216;-76
2021/01/09 08:15:32;;;;;;;10.70;3.85;;;2.70;99.90;;;3.16;86.00;101500.56;5062705;28;20196;-74
2021/01/09 08:18:00;;;;;;;13.13;4.63;;;2.70;99.90;;;3.17;86.06;101506.56;5045953;28;20185;-76
2021/01/09 08:20:28;;;;;;;11.60;4.13;;;2.70;99.90;;;3.19;85.99;101512.63;5060746;28;20200;-77
2021/01/09 08:23:00;;;;;;;13.43;4.60;;;2.70;99.90;;;3.16;85.66;101510.03;5061140;28;20234;-75
2021/01/09 08:25:28;;;;;;;12.75;4.85;;;2.70;99.90;;;3.15;85.69;101505.72;5046004;28;20200;-76
2021/01/09 08:27:57;;;;;;;13.23;4.67;;;2.70;99.90;;;3.15;85.74;101508.31;5066829;28;20203;-77
2021/01/09 08:30:26;;;;;;;12.30;4.23;;;2.70;99.90;;;3.14;85.61;101517.78;5061381;28;20247;-76
2021/01/09 08:33:03;;;;;;;10.60;4.50;;;2.70;99.90;;;3.13;85.74;101520.34;5053404;28;20211;-78
2021/01/09 08:35:30;;;;;;;10.82;3.95;;;2.70;99.90;;;3.15;85.52;101526.41;5068923;28;20215;-77
2021/01/09 08:37:57;;;;;;;11.40;4.30;;;2.70;99.90;;;3.13;85.29;101521.19;5066600;28;20188;-76
2021/01/09 08:40:25;;;;;;;11.85;4.38;;;2.70;99.90;;;3.16;85.53;101521.25;5064698;28;20219;-76
2021/01/09 08:43:01;;;;;;;12.50;4.37;;;2.70;99.90;;;3.15;85.54;101516.06;5062125;28;20215;-77
2021/01/09 08:45:47;;;;;;;11.40;4.13;;;2.70;99.90;;;3.14;85.44;101524.66;5045387;28;20258;-76
2021/01/09 08:48:19;;;;;;;12.17;4.03;;;2.70;99.90;;;3.12;85.55;101529.81;5055225;28;20222;-78
2021/01/09 08:50:56;;;;;;;12.63;4.90;;;2.70;99.90;;;3.15;85.57;101539.31;5055242;28;20911;-78
2021/01/09 08:53:24;;;;;;;12.00;4.37;;;2.70;99.90;;;3.17;85.56;101527.25;5068140;28;20219;-78
2021/01/09 08:55:59;;;;;;;16.47;6.23;;;2.80;99.90;;;3.20;85.48;101533.31;5065669;28;20192;-78
2021/01/09 08:58:30;;;;;;;13.77;5.10;;;2.80;99.90;;;3.23;85.70;101522.13;5049269;28;20200;-78
2021/01/09 09:01:00;;;;;;;13.57;5.03;;;2.90;99.90;;;3.25;85.51;101539.38;5058590;28;20220;-78
2021/01/09 09:03:27;;;;;;;13.18;4.75;;;2.90;99.90;;;3.21;85.38;101540.22;5067525;28;20221;-77
2021/01/09 09:05:57;;;;;;;14.53;4.63;;;2.90;99.90;;;3.23;85.67;101548.81;5067603;28;20188;-76
2021/01/09 09:08:28;;;;;;;14.13;5.23;;;2.90;99.90;;;3.27;86.10;101550.59;5069598;28;20238;-76
2021/01/09 09:10:56;;;;;;;12.73;5.20;;;2.90;99.90;;;3.27;85.98;101554.88;5054984;28;20669;-78
2021/01/09 09:13:24;;;;;;;17.70;7.13;;;2.90;99.90;;;3.31;86.09;101559.22;5072578;28;20224;-77
2021/01/09 09:15:52;;;;;;;19.23;6.87;;;2.90;99.90;;;3.36;86.15;101545.47;5048069;28;20254;-78
2021/01/09 09:18:20;;;;;;;17.83;6.18;;;3.00;99.90;;;3.35;85.97;101558.41;5070297;28;20200;-77
2021/01/09 09:20:49;;;;;;;16.80;6.00;;;2.90;99.90;;;3.31;86.23;101562.69;5040755;28;20653;-76
2021/01/09 09:23:25;;;;;;;17.02;5.70;;;2.90;99.90;;;3.25;86.53;101554.03;5063839;28;20239;-77
2021/01/09 09:26:07;;;;;;;18.53;6.10;;;2.90;99.90;;;3.23;86.77;101559.16;5057724;28;20241;-75
2021/01/09 09:28:51;;;;;;;19.55;6.10;;;2.90;99.90;;;3.24;87.39;101555.75;5063883;28;20195;-79
2021/01/09 09:31:25;;;;;;;16.30;5.87;;;2.90;99.90;;;3.32;87.58;101566.97;5049270;28;20212;-76
2021/01/09 09:34:07;;;;;;;16.47;5.70;;;2.90;99.90;;;3.40;87.56;101565.31;5045689;28;20215;-78
2021/01/09 09:36:38;;;;;;;20.03;5.83;;;3.00;99.90;;;3.36;87.63;101557.53;5056955;28;20228;-77
2021/01/09 09:39:18;;;;;;;15.90;5.43;;;3.00;99.90;;;3.30;87.90;101560.09;5049514;28;20200;-76
2021/01/09 09:41:54;;;;;;;19.10;6.20;;;2.90;99.90;;;3.21;88.11;101563.50;5058669;28;20275;-78
2021/01/09 09:44:22;;;;;;;19.57;6.27;;;2.90;99.90;;;3.18;88.15;101554.84;5062135;28;20196;-75
2021/01/09 09:46:51;;;;;;;16.27;5.33;;;2.80;99.90;;;3.18;88.69;101558.28;5058687;28;20200;-78
2021/01/09 09:49:17;;;;;;;19.17;6.30;;;2.90;99.90;;;3.25;88.61;101556.63;5046282;28;20193;-79
2021/01/09 09:51:43;;;;;;;18.63;6.43;;;2.90;99.90;;;3.33;88.81;101554.94;5066064;28;20211;-78
2021/01/09 09:54:10;;;;;;;20.25;5.75;;;3.00;99.90;;;3.41;88.84;101553.25;5067309;28;20200;-79
2021/01/09 09:56:39;;;;;;;18.70;5.73;;;3.00;99.90;;;3.40;88.59;101556.69;5042906;28;20204;-79
2021/01/09 09:59:07;;;;;;;17.23;5.80;;;3.00;99.90;;;3.39;88.62;101557.53;5058513;28;20223;-78
2021/01/09 10:01:35;;;;;;;19.00;5.72;;;3.00;99.90;;;3.40;89.07;101551.53;5060655;28;20184;-78
2021/01/09 10:04:03;;;;;;;19.17;6.17;;;3.10;99.90;;;3.41;88.79;101558.41;5049204;28;20199;-77
2021/01/09 10:06:37;;;;;;;17.60;6.03;;;3.10;99.90;;;3.41;89.03;101563.59;5044068;28;20192;-80
2021/01/09 10:09:13;;;;;;;16.53;5.70;;;3.10;99.90;;;3.43;88.92;101554.97;5065041;28;20233;-78
2021/01/09 10:11:41;;;;;;;18.00;5.67;;;3.10;99.90;;;3.46;88.89;101567.06;5068856;28;20188;-78
2021/01/09 10:14:07;;;;;;;18.23;6.07;;;3.10;99.90;;;3.45;89.12;101566.19;5070180;28;20199;-79
2021/01/09 10:16:35;;;;;;;17.50;5.73;;;3.10;99.90;;;3.38;88.80;101574.75;5067189;28;20191;-77
2021/01/09 10:19:04;;;;;;;15.73;5.97;;;3.10;99.90;;;3.33;89.05;101568.69;5051773;28;20197;-75
2021/01/09 10:21:32;;;;;;;15.90;5.87;;;3.00;99.90;;;3.33;89.29;101573.88;5069363;28;20306;-77
2021/01/09 10:23:59;;;;;;;17.37;5.80;;;3.00;99.90;;;3.33;89.23;101567.84;5070886;28;20230;-77
2021/01/09 10:26:27;;;;;;;19.17;6.33;;;3.00;99.90;;;3.33;89.29;101566.13;5059436;28;20207;-79
2021/01/09 10:28:54;;;;;;;22.35;6.50;;;3.00;99.90;;;3.32;89.36;101576.47;5055103;28;20196;-77